createdAt,value
2022-08-29T00:02:24.062Z,22.14
2022-08-29T00:04:52.427Z,22.18
2022-08-29T00:07:20.058Z,22.19
2022-08-29T00:09:47.525Z,22.18
2022-08-29T00:12:17.736Z,22.17
2022-08-29T00:14:45.424Z,22.17
2022-08-29T00:17:15.446Z,22.17
2022-08-29T00:19:43.023Z,22.16
2022-08-29T00:22:10.494Z,22.23
2022-08-29T00:24:38.106Z,22.20
2022-08-29T00:27:06.045Z,22.27
2022-08-29T00:29:33.539Z,22.28
2022-08-29T00:32:01.146Z,22.27
2022-08-29T00:34:28.762Z,22.24
2022-08-29T00:36:56.363Z,22.25
2022-08-29T00:39:23.891Z,22.20
2022-08-29T00:41:51.804Z,22.24
2022-08-29T00:44:19.979Z,22.22
2022-08-29T00:46:52.256Z,22.18
2022-08-29T00:49:28.747Z,22.20
2022-08-29T00:51:58.893Z,22.20
2022-08-29T00:54:27.374Z,22.21
2022-08-29T00:56:56.113Z,22.21
2022-08-29T00:59:31.941Z,22.20
2022-08-29T01:01:59.781Z,22.17
2022-08-29T01:04:27.540Z,22.15
2022-08-29T01:06:55.239Z,22.09
2022-08-29T01:09:24.534Z,22.10
2022-08-29T01:12:11.675Z,22.11
2022-08-29T01:14:41.089Z,22.10
2022-08-29T01:17:10.279Z,22.01
2022-08-29T01:19:52.482Z,22.09
2022-08-29T01:22:44.579Z,22.08
2022-08-29T01:25:17.010Z,22.02
2022-08-29T01:27:55.010Z,22.07
2022-08-29T01:30:25.397Z,22.02
2022-08-29T01:32:53.039Z,22.01
2022-08-29T01:35:20.551Z,21.96
2022-08-29T01:37:48.148Z,22.01
2022-08-29T01:40:15.757Z,22.01
2022-08-29T01:42:44.108Z,22.01
2022-08-29T01:45:12.037Z,21.97
2022-08-29T01:47:40.274Z,21.93
2022-08-29T01:50:14.538Z,21.95
2022-08-29T01:52:43.176Z,21.86
2022-08-29T01:55:11.441Z,21.83
2022-08-29T01:57:40.376Z,21.85
2022-08-29T02:00:10.832Z,21.82
2022-08-29T02:02:40.361Z,21.77
2022-08-29T02:05:09.852Z,21.74
2022-08-29T02:07:37.498Z,21.78
2022-08-29T02:10:06.955Z,21.72
2022-08-29T02:12:35.609Z,21.73
2022-08-29T02:15:03.846Z,21.71
2022-08-29T02:17:31.428Z,21.71
2022-08-29T02:19:59.299Z,21.71
2022-08-29T02:22:26.776Z,21.71
2022-08-29T02:24:54.325Z,21.69
2022-08-29T02:27:21.926Z,21.71
2022-08-29T02:29:49.488Z,21.74
2022-08-29T02:32:17.073Z,21.76
2022-08-29T02:34:47.901Z,21.70
2022-08-29T02:37:19.109Z,21.69
2022-08-29T02:39:46.765Z,21.73
2022-08-29T02:42:14.326Z,21.69
2022-08-29T02:44:41.890Z,21.71
2022-08-29T02:47:09.516Z,21.72
2022-08-29T02:49:37.135Z,21.77
2022-08-29T02:52:08.787Z,21.78
2022-08-29T02:54:36.447Z,21.86
2022-08-29T02:57:05.463Z,21.88
2022-08-29T02:59:32.964Z,21.88
2022-08-29T03:02:00.615Z,21.92
2022-08-29T03:04:28.470Z,21.84
2022-08-29T03:06:58.828Z,21.97
2022-08-29T03:09:26.467Z,22.00
2022-08-29T03:11:56.570Z,22.04
2022-08-29T03:14:24.793Z,22.03
2022-08-29T03:16:53.610Z,21.97
2022-08-29T03:19:23.519Z,22.08
2022-08-29T03:21:51.356Z,22.09
2022-08-29T03:24:26.230Z,22.01
2022-08-29T03:26:57.027Z,22.14
2022-08-29T03:29:26.449Z,22.14
2022-08-29T03:31:58.504Z,22.11
2022-08-29T03:34:29.397Z,22.11
2022-08-29T03:36:57.823Z,22.11
2022-08-29T03:39:25.771Z,22.25
2022-08-29T03:41:53.673Z,22.16
2022-08-29T03:44:22.673Z,22.26
2022-08-29T03:46:50.342Z,22.30
2022-08-29T03:49:18.094Z,22.32
2022-08-29T03:51:45.589Z,22.32
2022-08-29T03:54:13.194Z,22.33
2022-08-29T03:56:43.569Z,22.28
2022-08-29T03:59:11.506Z,22.45
2022-08-29T04:01:42.210Z,22.55
2022-08-29T04:04:30.020Z,22.65
2022-08-29T04:06:57.631Z,22.61
2022-08-29T04:09:32.468Z,22.72
2022-08-29T04:12:00.408Z,22.72
2022-08-29T04:14:29.583Z,22.63
2022-08-29T04:16:58.199Z,22.68
2022-08-29T04:19:25.685Z,22.62
2022-08-29T04:21:57.330Z,22.66
2022-08-29T04:24:25.502Z,22.60
2022-08-29T04:26:53.067Z,22.65
2022-08-29T04:29:20.578Z,22.63
2022-08-29T04:31:48.148Z,22.72
2022-08-29T04:34:18.405Z,22.79
2022-08-29T04:36:47.275Z,22.92
2022-08-29T04:39:15.442Z,22.93
2022-08-29T04:41:43.556Z,23.12
2022-08-29T04:44:14.362Z,23.21
2022-08-29T04:46:42.058Z,23.38
2022-08-29T04:49:09.599Z,23.40
2022-08-29T04:51:37.169Z,23.59
2022-08-29T04:54:06.715Z,23.62
2022-08-29T04:56:38.289Z,23.41
2022-08-29T04:59:09.669Z,23.67
2022-08-29T05:01:37.480Z,23.78
2022-08-29T05:04:05.547Z,23.92
2022-08-29T05:06:33.133Z,23.85
2022-08-29T05:09:00.752Z,23.86
2022-08-29T05:11:30.773Z,23.84
2022-08-29T05:13:59.670Z,23.62
2022-08-29T05:16:27.936Z,23.54
2022-08-29T05:18:56.418Z,23.51
2022-08-29T05:21:35.020Z,23.47
2022-08-29T05:24:05.623Z,23.46
2022-08-29T05:26:36.837Z,23.55
2022-08-29T05:29:08.416Z,23.57
2022-08-29T05:31:38.604Z,23.57
2022-08-29T05:34:16.260Z,23.57
2022-08-29T05:36:53.966Z,23.52
2022-08-29T05:39:21.474Z,23.40
2022-08-29T05:41:48.931Z,23.39
2022-08-29T05:44:16.837Z,23.40
2022-08-29T05:46:44.381Z,23.34
2022-08-29T05:49:12.100Z,23.21
2022-08-29T05:51:40.014Z,23.17
2022-08-29T05:54:08.342Z,23.29
2022-08-29T05:56:36.212Z,23.44
2022-08-29T05:59:04.105Z,23.66
2022-08-29T06:01:34.169Z,23.99
2022-08-29T06:04:01.966Z,24.08
2022-08-29T06:06:30.117Z,23.94
2022-08-29T06:08:59.280Z,23.82
2022-08-29T06:11:30.133Z,23.78
2022-08-29T06:13:58.284Z,23.75
2022-08-29T06:16:27.672Z,23.93
2022-08-29T06:18:55.447Z,24.11
2022-08-29T06:21:23.906Z,24.11
2022-08-29T06:23:51.565Z,24.20
2022-08-29T06:26:19.931Z,24.25
2022-08-29T06:28:48.090Z,24.45
2022-08-29T06:31:21.634Z,24.73
2022-08-29T06:33:53.390Z,24.95
2022-08-29T06:36:21.701Z,25.20
2022-08-29T06:38:49.338Z,25.39
2022-08-29T06:41:19.745Z,25.35
2022-08-29T06:43:47.274Z,25.07
2022-08-29T06:46:33.378Z,25.08
2022-08-29T06:49:02.710Z,25.05
2022-08-29T06:51:33.349Z,25.11
2022-08-29T06:54:02.938Z,25.17
2022-08-29T06:56:30.875Z,25.20
2022-08-29T06:58:58.728Z,25.06
2022-08-29T07:01:29.005Z,24.94
2022-08-29T07:03:58.098Z,24.89
2022-08-29T07:06:28.368Z,24.92
2022-08-29T07:08:56.598Z,25.43
2022-08-29T07:11:26.355Z,26.08
2022-08-29T07:13:57.451Z,26.52
2022-08-29T07:16:26.331Z,26.60
2022-08-29T07:18:56.837Z,26.70
2022-08-29T07:21:26.407Z,26.88
2022-08-29T07:23:55.598Z,26.73
2022-08-29T07:26:30.793Z,27.09
2022-08-29T07:29:03.238Z,27.48
2022-08-29T07:31:31.688Z,27.94
2022-08-29T07:34:02.650Z,28.49
2022-08-29T07:36:34.425Z,28.93
2022-08-29T07:39:05.521Z,29.22
2022-08-29T07:41:33.654Z,29.48
2022-08-29T07:44:03.556Z,29.76
2022-08-29T07:46:31.669Z,30.22
2022-08-29T07:49:00.028Z,30.78
2022-08-29T07:51:28.670Z,31.33
2022-08-29T07:53:58.299Z,31.68
2022-08-29T07:56:37.089Z,31.93
2022-08-29T07:59:06.544Z,31.89
2022-08-29T08:01:35.438Z,32.10
2022-08-29T08:04:03.327Z,32.25
2022-08-29T08:06:31.247Z,32.66
2022-08-29T08:09:01.893Z,33.18
2022-08-29T08:11:29.493Z,33.48
2022-08-29T08:13:57.902Z,33.37
2022-08-29T08:16:27.733Z,33.93
2022-08-29T08:18:56.217Z,34.37
2022-08-29T08:21:25.534Z,34.46
2022-08-29T08:23:53.603Z,34.45
2022-08-29T08:26:21.803Z,34.49
2022-08-29T08:28:50.158Z,34.41
2022-08-29T08:31:18.271Z,34.22
2022-08-29T08:33:48.570Z,33.98
2022-08-29T08:36:30.998Z,34.18
2022-08-29T08:39:00.110Z,34.21
2022-08-29T08:41:33.277Z,34.38
2022-08-29T08:44:07.227Z,34.41
2022-08-29T08:46:39.264Z,34.54
2022-08-29T08:49:16.891Z,34.02
2022-08-29T08:51:53.263Z,33.26
2022-08-29T08:54:26.908Z,33.25
2022-08-29T08:57:03.806Z,33.83
2022-08-29T08:59:42.763Z,34.53
2022-08-29T09:02:36.752Z,34.62
2022-08-29T09:05:19.618Z,34.88
2022-08-29T09:08:20.633Z,34.91
2022-08-29T09:11:06.414Z,34.71
2022-08-29T09:13:51.165Z,34.05
2022-08-29T09:16:27.510Z,33.87
2022-08-29T09:19:09.510Z,33.87
2022-08-29T09:21:49.433Z,33.51
2022-08-29T09:24:47.374Z,32.78
2022-08-29T09:27:38.344Z,31.91
2022-08-29T09:30:09.343Z,30.72
2022-08-29T09:32:54.307Z,30.08
2022-08-29T09:35:29.622Z,29.16
2022-08-29T09:38:08.054Z,28.94
2022-08-29T09:40:59.321Z,29.05
2022-08-29T09:43:41.533Z,30.00
2022-08-29T09:46:11.939Z,31.38
2022-08-29T09:48:43.024Z,33.08
2022-08-29T09:51:31.211Z,34.85
2022-08-29T09:54:19.067Z,35.43
2022-08-29T09:56:53.973Z,34.96
2022-08-29T09:59:31.174Z,35.44
2022-08-29T10:02:24.488Z,35.99
2022-08-29T10:05:00.470Z,35.97
2022-08-29T10:07:37.477Z,36.32
2022-08-29T10:10:23.630Z,36.82
2022-08-29T10:13:10.221Z,37.23
2022-08-29T10:16:13.459Z,37.81
2022-08-29T10:19:13.835Z,37.98
2022-08-29T10:22:04.535Z,38.26
2022-08-29T10:24:44.041Z,38.16
2022-08-29T10:27:26.571Z,38.50
2022-08-29T10:30:14.594Z,38.95
2022-08-29T10:32:57.025Z,38.98
2022-08-29T10:35:42.360Z,39.71
2022-08-29T10:38:27.863Z,40.01
2022-08-29T10:41:52.869Z,40.29
2022-08-29T10:44:40.459Z,39.26
2022-08-29T10:47:34.063Z,38.81
2022-08-29T10:50:27.521Z,38.89
2022-08-29T10:53:15.490Z,39.23
2022-08-29T10:55:54.349Z,39.44
2022-08-29T10:58:56.483Z,39.97
2022-08-29T11:01:59.374Z,37.62
2022-08-29T11:04:29.993Z,35.19
2022-08-29T11:07:04.353Z,33.94
2022-08-29T11:09:38.678Z,33.00
2022-08-29T11:12:18.081Z,32.16
2022-08-29T11:15:20.679Z,31.37
2022-08-29T11:17:56.215Z,30.45
2022-08-29T11:20:30.621Z,30.28
2022-08-29T11:23:26.626Z,30.31
2022-08-29T11:25:55.593Z,29.80
2022-08-29T11:28:52.626Z,29.87
2022-08-29T11:31:24.823Z,30.11
2022-08-29T11:34:18.238Z,29.73
2022-08-29T11:37:26.976Z,29.66
2022-08-29T11:40:47.070Z,29.28
2022-08-29T11:43:18.476Z,29.03
2022-08-29T11:45:58.319Z,28.87
2022-08-29T11:48:42.087Z,29.14
2022-08-29T11:51:36.139Z,30.81
2022-08-29T11:54:26.225Z,33.16
2022-08-29T11:57:03.499Z,34.48
2022-08-29T11:59:49.355Z,35.99
2022-08-29T12:02:28.642Z,36.56
2022-08-29T12:05:06.722Z,36.97
2022-08-29T12:07:52.054Z,37.42
2022-08-29T12:10:25.484Z,36.89
2022-08-29T12:13:33.147Z,36.84
2022-08-29T12:16:09.481Z,36.53
2022-08-29T12:18:52.852Z,36.40
2022-08-29T12:21:38.552Z,36.67
2022-08-29T12:24:29.722Z,37.10
2022-08-29T12:26:57.611Z,37.06
2022-08-29T12:29:43.561Z,37.27
2022-08-29T12:32:33.019Z,37.08
2022-08-29T12:35:20.398Z,34.81
2022-08-29T12:38:28.306Z,32.92
2022-08-29T12:41:04.925Z,32.25
2022-08-29T12:43:44.008Z,33.58
2022-08-29T12:46:16.715Z,33.72
2022-08-29T12:48:57.573Z,34.45
2022-08-29T12:51:40.967Z,34.90
2022-08-29T12:54:11.033Z,33.93
2022-08-29T12:56:47.723Z,32.30
2022-08-29T12:59:20.459Z,30.93
2022-08-29T13:01:50.889Z,29.99
2022-08-29T13:04:34.049Z,29.53
2022-08-29T13:07:07.370Z,28.84
2022-08-29T13:09:43.633Z,28.82
2022-08-29T13:12:20.264Z,29.22
2022-08-29T13:14:56.601Z,28.24
2022-08-29T13:17:26.200Z,28.19
2022-08-29T13:20:38.355Z,27.71
2022-08-29T13:23:05.898Z,27.30
2022-08-29T13:25:34.126Z,27.10
2022-08-29T13:28:02.122Z,27.05
2022-08-29T13:30:29.734Z,27.11
2022-08-29T13:32:57.300Z,26.93
2022-08-29T13:35:37.130Z,26.85
2022-08-29T13:38:24.336Z,26.69
2022-08-29T13:40:57.315Z,26.39
2022-08-29T13:43:48.799Z,26.39
2022-08-29T13:46:27.350Z,26.18
2022-08-29T13:49:02.066Z,26.00
2022-08-29T13:51:29.614Z,25.84
2022-08-29T13:53:57.170Z,25.66
2022-08-29T13:56:32.766Z,25.65
2022-08-29T13:59:06.544Z,25.51
2022-08-29T14:04:38.069Z,25.33
2022-08-29T14:07:07.830Z,25.27
2022-08-29T14:09:37.965Z,25.15
2022-08-29T14:12:09.460Z,25.24
2022-08-29T14:14:36.984Z,25.17
2022-08-29T14:17:05.143Z,25.08
2022-08-29T14:19:33.795Z,24.95
2022-08-29T14:22:02.234Z,25.03
2022-08-29T14:24:32.007Z,24.90
2022-08-29T14:27:02.554Z,24.83
2022-08-29T14:29:31.652Z,24.70
2022-08-29T14:32:02.968Z,24.70
2022-08-29T14:34:32.796Z,24.71
2022-08-29T14:37:07.021Z,24.68
2022-08-29T14:39:35.043Z,24.62
2022-08-29T14:42:02.855Z,24.61
2022-08-29T14:44:30.445Z,24.56
2022-08-29T14:46:58.244Z,24.54
2022-08-29T14:49:26.086Z,24.53
2022-08-29T14:51:53.667Z,24.50
2022-08-29T14:54:21.231Z,24.45
2022-08-29T14:56:50.117Z,24.48
2022-08-29T14:59:22.756Z,24.39
2022-08-29T15:01:54.148Z,24.38
2022-08-29T15:04:34.960Z,24.38
2022-08-29T15:07:09.133Z,24.38
2022-08-29T15:09:39.776Z,24.35
2022-08-29T15:12:12.658Z,24.25
2022-08-29T15:14:41.561Z,24.19
2022-08-29T15:17:09.592Z,24.10
2022-08-29T15:22:25.449Z,23.96
2022-08-29T15:24:53.248Z,23.95
2022-08-29T15:27:27.105Z,23.94
2022-08-29T15:29:56.493Z,23.90
2022-08-29T15:32:26.035Z,23.81
2022-08-29T15:34:53.771Z,23.76
2022-08-29T15:37:22.319Z,23.77
2022-08-29T15:39:56.123Z,23.71
2022-08-29T15:42:26.597Z,23.64
2022-08-29T15:44:54.163Z,23.64
2022-08-29T15:47:25.680Z,23.57
2022-08-29T15:49:55.027Z,23.58
2022-08-29T15:52:22.525Z,23.57
2022-08-29T15:54:50.043Z,23.53
2022-08-29T15:57:25.511Z,23.53
2022-08-29T15:59:57.963Z,23.49
2022-08-29T16:02:28.083Z,23.47
2022-08-29T16:04:57.353Z,23.44
2022-08-29T16:07:31.660Z,23.33
2022-08-29T16:10:01.064Z,23.36
2022-08-29T16:12:31.485Z,23.27
2022-08-29T16:15:01.242Z,23.25
2022-08-29T16:17:31.580Z,23.19
2022-08-29T16:20:01.315Z,23.20
2022-08-29T16:22:30.200Z,23.13
2022-08-29T16:24:58.525Z,23.13
2022-08-29T16:27:26.158Z,23.05
2022-08-29T16:29:54.641Z,23.02
2022-08-29T16:32:22.182Z,22.96
2022-08-29T16:34:50.294Z,22.93
2022-08-29T16:37:18.946Z,22.87
2022-08-29T16:39:46.481Z,22.85
2022-08-29T16:42:14.273Z,22.77
2022-08-29T16:44:42.052Z,22.78
2022-08-29T16:47:10.802Z,22.69
2022-08-29T16:49:38.404Z,22.70
2022-08-29T16:52:06.338Z,22.65
2022-08-29T16:54:36.730Z,22.63
2022-08-29T16:57:04.549Z,22.59
2022-08-29T16:59:37.078Z,22.50
2022-08-29T17:02:05.149Z,22.48
2022-08-29T17:04:32.870Z,22.47
2022-08-29T17:07:05.941Z,22.45
2022-08-29T17:09:35.782Z,22.42
2022-08-29T17:12:03.861Z,22.33
2022-08-29T17:15:06.185Z,22.37
2022-08-29T17:17:35.339Z,22.33
2022-08-29T17:20:03.097Z,22.33
2022-08-29T17:22:30.855Z,22.28
2022-08-29T17:24:59.491Z,22.28
2022-08-29T17:27:30.106Z,22.26
2022-08-29T17:29:58.121Z,22.26
2022-08-29T17:32:25.871Z,22.19
2022-08-29T17:34:53.616Z,22.24
2022-08-29T17:37:21.161Z,22.26
2022-08-29T17:39:48.792Z,22.18
2022-08-29T17:42:16.730Z,22.24
2022-08-29T17:44:46.464Z,22.20
2022-08-29T17:47:14.247Z,22.22
2022-08-29T17:49:41.863Z,22.18
2022-08-29T17:52:09.472Z,22.24
2022-08-29T17:54:37.323Z,22.27
2022-08-29T17:57:05.061Z,22.24
2022-08-29T17:59:35.182Z,22.28
2022-08-29T18:02:05.287Z,22.31
2022-08-29T18:04:33.155Z,22.35
2022-08-29T18:07:00.842Z,22.32
2022-08-29T18:09:31.460Z,22.31
2022-08-29T18:11:59.083Z,22.31
2022-08-29T18:14:32.690Z,22.31
2022-08-29T18:17:00.321Z,22.26
2022-08-29T18:19:31.018Z,22.28
2022-08-29T18:21:59.633Z,22.23
2022-08-29T18:24:27.194Z,22.20
2022-08-29T18:26:54.801Z,22.14
2022-08-29T18:29:22.365Z,22.13
2022-08-29T18:31:50.255Z,22.13
2022-08-29T18:34:17.972Z,22.08
2022-08-29T18:36:48.608Z,22.07
2022-08-29T18:39:17.082Z,22.06
2022-08-29T18:41:45.082Z,22.00
2022-08-29T18:44:12.612Z,21.96
2022-08-29T18:46:47.973Z,21.95
2022-08-29T18:49:17.355Z,21.97
2022-08-29T18:51:44.911Z,21.94
2022-08-29T18:54:18.886Z,21.95
2022-08-29T18:56:47.101Z,21.91
2022-08-29T18:59:14.630Z,21.90
2022-08-29T19:01:43.106Z,21.87
2022-08-29T19:04:10.703Z,21.85
2022-08-29T19:06:38.259Z,21.78
2022-08-29T19:09:05.900Z,21.80
2022-08-29T19:11:33.483Z,21.78
2022-08-29T19:14:00.996Z,21.72
2022-08-29T19:16:28.861Z,21.71
2022-08-29T19:18:56.363Z,21.73
2022-08-29T19:21:26.169Z,21.69
2022-08-29T19:23:54.771Z,21.63
2022-08-29T19:26:31.932Z,21.67
2022-08-29T19:29:05.044Z,21.61
2022-08-29T19:31:32.879Z,21.61
2022-08-29T19:34:00.867Z,21.66
2022-08-29T19:36:28.543Z,21.66
2022-08-29T19:38:56.395Z,21.61
2022-08-29T19:41:25.062Z,21.60
2022-08-29T19:43:53.061Z,21.55
2022-08-29T19:46:23.293Z,21.58
2022-08-29T19:48:52.295Z,21.54
2022-08-29T19:51:24.748Z,21.58
2022-08-29T19:53:57.168Z,21.57
2022-08-29T19:56:29.236Z,21.57
2022-08-29T19:58:57.184Z,21.54
2022-08-29T20:01:25.792Z,21.56
2022-08-29T20:03:54.402Z,21.56
2022-08-29T20:06:23.330Z,21.61
2022-08-29T20:08:51.007Z,21.61
2022-08-29T20:11:21.988Z,21.63
2022-08-29T20:13:51.536Z,21.53
2022-08-29T20:16:30.925Z,21.48
2022-08-29T20:18:58.831Z,21.51
2022-08-29T20:21:26.901Z,21.50
2022-08-29T20:23:59.783Z,21.44
2022-08-29T20:26:33.482Z,21.47
2022-08-29T20:29:03.025Z,21.38
2022-08-29T20:31:30.741Z,21.40
2022-08-29T20:33:58.527Z,21.41
2022-08-29T20:36:45.842Z,21.38
2022-08-29T20:39:16.810Z,21.27
2022-08-29T20:41:52.202Z,21.31
2022-08-29T20:44:33.504Z,21.38
2022-08-29T20:47:01.936Z,21.36
2022-08-29T20:49:29.707Z,21.33
2022-08-29T20:51:57.323Z,21.34
2022-08-29T20:54:25.296Z,21.38
2022-08-29T20:56:55.118Z,21.38
2022-08-29T20:59:26.559Z,21.28
2022-08-29T21:01:55.740Z,21.40
2022-08-29T21:04:42.524Z,21.35
2022-08-29T21:07:13.223Z,21.31
2022-08-29T21:09:45.608Z,21.40
2022-08-29T21:12:14.569Z,21.27
2022-08-29T21:14:42.427Z,21.29
2022-08-29T21:17:11.545Z,21.26
2022-08-29T21:19:40.327Z,21.31
2022-08-29T21:22:10.360Z,21.35
2022-08-29T21:24:37.959Z,21.31
2022-08-29T21:27:05.956Z,21.28
2022-08-29T21:29:37.343Z,21.16
2022-08-29T21:32:05.256Z,21.13
2022-08-29T21:34:32.842Z,21.22
2022-08-29T21:37:00.519Z,21.20
2022-08-29T21:39:29.134Z,21.18
2022-08-29T21:41:58.334Z,21.20
2022-08-29T21:44:30.775Z,21.21
2022-08-29T21:46:58.763Z,21.16
2022-08-29T21:49:32.601Z,21.15
2022-08-29T21:52:00.909Z,21.23
2022-08-29T21:54:28.572Z,21.28
2022-08-29T21:56:56.116Z,21.27
2022-08-29T21:59:27.936Z,21.27
2022-08-29T22:01:56.713Z,21.25
2022-08-29T22:04:29.010Z,21.25
2022-08-29T22:06:59.283Z,21.24
2022-08-29T22:09:28.516Z,21.25
2022-08-29T22:11:56.454Z,21.25
2022-08-29T22:14:43.163Z,21.24
2022-08-29T22:17:10.786Z,21.26
2022-08-29T22:19:38.592Z,21.28
2022-08-29T22:22:06.235Z,21.17
2022-08-29T22:24:33.857Z,21.25
2022-08-29T22:27:03.890Z,21.23
2022-08-29T22:29:34.769Z,21.08
2022-08-29T22:32:05.240Z,21.13
2022-08-29T22:34:35.034Z,21.18
2022-08-29T22:37:02.858Z,21.20
2022-08-29T22:39:30.466Z,21.20
2022-08-29T22:41:58.038Z,21.18
2022-08-29T22:47:13.540Z,21.02
2022-08-29T22:49:41.237Z,21.07
2022-08-29T22:52:11.396Z,21.03
2022-08-29T22:54:39.727Z,21.02
2022-08-29T22:57:11.051Z,21.03
2022-08-29T22:59:42.369Z,20.92
2022-08-29T23:02:11.750Z,20.99
2022-08-29T23:04:40.244Z,20.95
2022-08-29T23:07:12.185Z,20.90
2022-08-29T23:09:41.938Z,20.70
2022-08-29T23:12:10.903Z,20.83
2022-08-29T23:14:40.424Z,20.76
2022-08-29T23:17:08.892Z,20.86
2022-08-29T23:19:37.110Z,20.85
2022-08-29T23:22:10.227Z,20.85
2022-08-29T23:24:41.574Z,20.89
2022-08-29T23:27:31.118Z,20.90
2022-08-29T23:30:00.086Z,20.71
2022-08-29T23:32:28.422Z,20.78
2022-08-29T23:34:58.473Z,20.87
2022-08-29T23:37:29.291Z,20.78
2022-08-29T23:39:56.799Z,20.75
2022-08-29T23:42:24.869Z,20.69
2022-08-29T23:44:58.249Z,20.82
2022-08-29T23:47:25.800Z,20.62
2022-08-29T23:49:53.287Z,20.62
2022-08-29T23:52:20.873Z,20.68
2022-08-29T23:54:50.727Z,20.60
2022-08-29T23:57:20.854Z,20.57
